Aérodrome :
LOGIN :

S'inscrire | Disclaimer

   EN    FR    IT 

 










Légende :    VFR   VFR Marginal   IFR   IFR Intensif   IFR Très Intensif
Visi : 
Plafond : 
>= 8 km
>= 3000ft
5 à 8 km
1000 à 3000 ft
1500m à 5 km
500 à 1000 ft
800 à 1500m
200 à 500 ft
< 800m
< 200 ft
Symboles :   Orages  Brouillard  Fortes neiges  Fortes précipitations  Vent > 20 kt
SIGMETs :   Divers  Orages  Givrage  Turbulence  Onde Orograph.  Cendres Volcan.







- Altitude de l'aérodrome : 870 ft
- Code IATA : ETZ
- Voir les cartes d'approche


LFJL - Metz Nancy Lorraine

DERNIER METAR :
  • 101300Z AUTO 29016KT 9999 FEW020 SCT026 07/03 Q1024 TEMPO 28010G20KT BKN013 SCT015TCU

METARs EXPIRÉS :
  • 101230Z AUTO 29015KT 9999 FEW017 SCT023 BKN038 06/03 Q1024 TEMPO 28010G20KT BKN013 SCT015TCU
  • 101200Z AUTO 29014KT 9999 BKN016 BKN022 OVC028 07/04 Q1024 TEMPO BKN013 SCT015TCU
  • 101130Z AUTO 29012KT 9999 BKN016/// OVC024/// ///TCU 07/04 Q1024 TEMPO BKN013 SCT015TCU
  • 101100Z AUTO 29011KT 9999 -RA BKN015/// BKN023/// OVC043/// ///TCU 06/05 Q1025 BECMG SCT015 BKN030
  • 101030Z AUTO 28014KT 9999 -RA OVC014/// ///TCU 06/04 Q1025 BECMG SCT015 BKN030

TAF TAF LFJL
Valide du 10 à 12h jusqu'au 11 à 12h UTC


101100Z 1012/1112 28006KT 9999 SCT015 BKN045
TEMPO 1012/1020 28010G20KT -SHRA BKN013 SCT015TCU
BECMG 1100/1102 4000 BR
PROB40
TEMPO 1102/1110 0800 FG BKN002
Pas de NOTAMs connus pour ce terrain.



MET'MAP, la Météo Aéronautique d'un coup d'oeil ! - Copyright ORBIFLY Décembre 2007 - Disclaimer

ORBIFLY MET'MAP TEAM :

Programmation & Développement : Alexandra Zaïnal
Conception & Développement : Baudouin d'Aumeries
Co-Programmation & Développement : Marc-Olivier Méhu
Soutien technique & logistique : Manuel Goepfert

Contact : metmap@orbifly.com




SOURCES & CREDITS :

   NOAA